sensor_id;sensor_type;location;lat;lon;timestamp;P1;durP1;ratioP1;P2;durP2;ratioP2
1759;SDS011;877;46.266;20.062;2022-12-08T00:01:14;158.48;;;90.75;;
1759;SDS011;877;46.266;20.062;2022-12-08T00:03:41;138.50;;;84.57;;
1759;SDS011;877;46.266;20.062;2022-12-08T00:06:13;146.55;;;88.65;;
1759;SDS011;877;46.266;20.062;2022-12-08T00:08:59;135.43;;;83.38;;
1759;SDS011;877;46.266;20.062;2022-12-08T00:11:44;159.55;;;87.95;;
1759;SDS011;877;46.266;20.062;2022-12-08T00:14:10;143.73;;;86.95;;
1759;SDS011;877;46.266;20.062;2022-12-08T00:16:38;143.15;;;87.45;;
1759;SDS011;877;46.266;20.062;2022-12-08T00:19:05;136.55;;;82.90;;
1759;SDS011;877;46.266;20.062;2022-12-08T00:21:31;143.65;;;80.82;;
1759;SDS011;877;46.266;20.062;2022-12-08T00:23:57;137.65;;;78.68;;
1759;SDS011;877;46.266;20.062;2022-12-08T00:26:25;135.98;;;75.63;;
1759;SDS011;877;46.266;20.062;2022-12-08T00:28:52;127.95;;;72.15;;
1759;SDS011;877;46.266;20.062;2022-12-08T00:31:18;117.50;;;68.88;;
1759;SDS011;877;46.266;20.062;2022-12-08T00:33:44;112.95;;;63.80;;
1759;SDS011;877;46.266;20.062;2022-12-08T00:36:13;114.70;;;66.47;;
1759;SDS011;877;46.266;20.062;2022-12-08T00:38:39;105.95;;;62.97;;
1759;SDS011;877;46.266;20.062;2022-12-08T00:41:06;104.63;;;63.22;;
1759;SDS011;877;46.266;20.062;2022-12-08T00:43:34;105.20;;;62.63;;
1759;SDS011;877;46.266;20.062;2022-12-08T00:46:00;99.25;;;62.22;;
1759;SDS011;877;46.266;20.062;2022-12-08T00:48:26;102.50;;;60.55;;
1759;SDS011;877;46.266;20.062;2022-12-08T00:53:22;107.07;;;63.72;;
1759;SDS011;877;46.266;20.062;2022-12-08T00:55:49;101.78;;;60.20;;
1759;SDS011;877;46.266;20.062;2022-12-08T00:58:15;99.78;;;57.50;;
1759;SDS011;877;46.266;20.062;2022-12-08T01:00:42;92.75;;;55.33;;
1759;SDS011;877;46.266;20.062;2022-12-08T01:03:11;89.95;;;53.42;;
1759;SDS011;877;46.266;20.062;2022-12-08T01:05:38;92.03;;;52.13;;
1759;SDS011;877;46.266;20.062;2022-12-08T01:08:05;82.93;;;51.88;;
1759;SDS011;877;46.266;20.062;2022-12-08T01:10:33;80.22;;;49.10;;
1759;SDS011;877;46.266;20.062;2022-12-08T01:12:59;81.38;;;50.45;;
1759;SDS011;877;46.266;20.062;2022-12-08T01:15:26;84.18;;;48.33;;
1759;SDS011;877;46.266;20.062;2022-12-08T01:17:53;71.43;;;50.42;;
1759;SDS011;877;46.266;20.062;2022-12-08T01:20:20;80.35;;;51.42;;
1759;SDS011;877;46.266;20.062;2022-12-08T01:22:46;82.88;;;50.97;;
1759;SDS011;877;46.266;20.062;2022-12-08T01:25:12;90.38;;;56.25;;
1759;SDS011;877;46.266;20.062;2022-12-08T01:27:38;81.63;;;50.33;;
1759;SDS011;877;46.266;20.062;2022-12-08T01:30:06;78.13;;;49.63;;
1759;SDS011;877;46.266;20.062;2022-12-08T01:32:32;86.75;;;50.45;;
1759;SDS011;877;46.266;20.062;2022-12-08T01:34:58;91.75;;;54.83;;
1759;SDS011;877;46.266;20.062;2022-12-08T01:37:25;156.25;;;79.53;;
1759;SDS011;877;46.266;20.062;2022-12-08T01:39:52;124.75;;;68.95;;
1759;SDS011;877;46.266;20.062;2022-12-08T01:42:19;122.90;;;67.10;;
1759;SDS011;877;46.266;20.062;2022-12-08T01:44:54;107.80;;;60.17;;
1759;SDS011;877;46.266;20.062;2022-12-08T01:47:22;96.55;;;56.47;;
1759;SDS011;877;46.266;20.062;2022-12-08T01:49:52;100.30;;;56.72;;
1759;SDS011;877;46.266;20.062;2022-12-08T01:52:52;94.10;;;55.65;;
1759;SDS011;877;46.266;20.062;2022-12-08T01:55:16;90.55;;;58.20;;
1759;SDS011;877;46.266;20.062;2022-12-08T01:57:48;92.82;;;55.80;;
1759;SDS011;877;46.266;20.062;2022-12-08T02:00:16;90.68;;;53.90;;
1759;SDS011;877;46.266;20.062;2022-12-08T02:05:18;101.10;;;59.05;;
1759;SDS011;877;46.266;20.062;2022-12-08T02:07:47;86.35;;;56.05;;
1759;SDS011;877;46.266;20.062;2022-12-08T02:10:17;96.50;;;58.60;;
1759;SDS011;877;46.266;20.062;2022-12-08T02:12:45;103.00;;;54.90;;
1759;SDS011;877;46.266;20.062;2022-12-08T02:15:12;84.15;;;53.80;;
1759;SDS011;877;46.266;20.062;2022-12-08T02:17:48;90.05;;;56.60;;
1759;SDS011;877;46.266;20.062;2022-12-08T02:25:30;91.47;;;54.33;;
1759;SDS011;877;46.266;20.062;2022-12-08T02:28:02;89.03;;;53.53;;
1759;SDS011;877;46.266;20.062;2022-12-08T02:31:16;96.55;;;59.05;;
1759;SDS011;877;46.266;20.062;2022-12-08T02:33:26;97.18;;;61.08;;
1759;SDS011;877;46.266;20.062;2022-12-08T02:41:18;101.22;;;61.67;;
1759;SDS011;877;46.266;20.062;2022-12-08T02:44:29;108.10;;;59.03;;
1759;SDS011;877;46.266;20.062;2022-12-08T02:46:38;95.75;;;58.38;;
1759;SDS011;877;46.266;20.062;2022-12-08T02:49:05;104.78;;;59.10;;
1759;SDS011;877;46.266;20.062;2022-12-08T02:51:32;105.50;;;60.50;;
1759;SDS011;877;46.266;20.062;2022-12-08T02:54:01;98.60;;;60.38;;
1759;SDS011;877;46.266;20.062;2022-12-08T02:59:01;109.28;;;56.67;;
1759;SDS011;877;46.266;20.062;2022-12-08T03:07:02;90.85;;;57.33;;
1759;SDS011;877;46.266;20.062;2022-12-08T03:09:29;91.60;;;55.58;;
1759;SDS011;877;46.266;20.062;2022-12-08T03:14:45;91.07;;;57.05;;
1759;SDS011;877;46.266;20.062;2022-12-08T03:17:12;92.60;;;55.67;;
1759;SDS011;877;46.266;20.062;2022-12-08T03:19:40;95.93;;;53.80;;
1759;SDS011;877;46.266;20.062;2022-12-08T03:22:07;108.43;;;59.65;;
1759;SDS011;877;46.266;20.062;2022-12-08T03:24:35;96.13;;;57.22;;
1759;SDS011;877;46.266;20.062;2022-12-08T03:27:21;96.78;;;58.15;;
1759;SDS011;877;46.266;20.062;2022-12-08T03:29:50;96.07;;;55.72;;
1759;SDS011;877;46.266;20.062;2022-12-08T03:34:46;88.28;;;55.00;;
1759;SDS011;877;46.266;20.062;2022-12-08T03:37:14;92.05;;;56.70;;
1759;SDS011;877;46.266;20.062;2022-12-08T03:39:46;92.38;;;56.25;;
1759;SDS011;877;46.266;20.062;2022-12-08T03:42:12;92.13;;;52.78;;
1759;SDS011;877;46.266;20.062;2022-12-08T03:44:38;91.18;;;54.45;;
1759;SDS011;877;46.266;20.062;2022-12-08T03:47:04;84.60;;;52.15;;
1759;SDS011;877;46.266;20.062;2022-12-08T03:49:31;83.88;;;52.15;;
1759;SDS011;877;46.266;20.062;2022-12-08T03:51:57;88.15;;;54.35;;
1759;SDS011;877;46.266;20.062;2022-12-08T03:54:23;82.60;;;52.50;;
1759;SDS011;877;46.266;20.062;2022-12-08T03:56:49;88.60;;;54.03;;
1759;SDS011;877;46.266;20.062;2022-12-08T03:59:15;91.13;;;56.40;;
1759;SDS011;877;46.266;20.062;2022-12-08T04:01:42;87.93;;;51.55;;
1759;SDS011;877;46.266;20.062;2022-12-08T04:04:08;86.10;;;51.10;;
1759;SDS011;877;46.266;20.062;2022-12-08T04:06:34;80.50;;;50.53;;
1759;SDS011;877;46.266;20.062;2022-12-08T04:09:00;85.07;;;54.08;;
1759;SDS011;877;46.266;20.062;2022-12-08T04:11:26;83.60;;;52.67;;
1759;SDS011;877;46.266;20.062;2022-12-08T04:13:53;88.22;;;53.05;;
1759;SDS011;877;46.266;20.062;2022-12-08T04:16:20;78.65;;;49.35;;
1759;SDS011;877;46.266;20.062;2022-12-08T04:18:47;78.97;;;49.90;;
1759;SDS011;877;46.266;20.062;2022-12-08T04:21:13;78.07;;;48.30;;
1759;SDS011;877;46.266;20.062;2022-12-08T04:23:39;82.47;;;50.45;;
1759;SDS011;877;46.266;20.062;2022-12-08T04:26:07;74.18;;;49.28;;
1759;SDS011;877;46.266;20.062;2022-12-08T04:28:34;76.97;;;48.20;;
1759;SDS011;877;46.266;20.062;2022-12-08T04:31:00;66.70;;;42.67;;
1759;SDS011;877;46.266;20.062;2022-12-08T04:33:27;65.95;;;43.75;;
1759;SDS011;877;46.266;20.062;2022-12-08T04:35:54;63.28;;;41.05;;
1759;SDS011;877;46.266;20.062;2022-12-08T04:38:20;58.78;;;40.90;;
1759;SDS011;877;46.266;20.062;2022-12-08T04:40:46;61.20;;;38.83;;
1759;SDS011;877;46.266;20.062;2022-12-08T04:43:14;57.45;;;38.00;;
1759;SDS011;877;46.266;20.062;2022-12-08T04:45:40;54.72;;;36.90;;
1759;SDS011;877;46.266;20.062;2022-12-08T04:48:07;58.67;;;38.65;;
1759;SDS011;877;46.266;20.062;2022-12-08T04:50:37;53.85;;;34.67;;
1759;SDS011;877;46.266;20.062;2022-12-08T04:53:03;56.55;;;38.15;;
1759;SDS011;877;46.266;20.062;2022-12-08T04:55:30;49.15;;;35.60;;
1759;SDS011;877;46.266;20.062;2022-12-08T04:57:56;51.47;;;36.15;;
1759;SDS011;877;46.266;20.062;2022-12-08T05:00:22;54.40;;;35.80;;
1759;SDS011;877;46.266;20.062;2022-12-08T05:02:48;59.20;;;37.53;;
1759;SDS011;877;46.266;20.062;2022-12-08T05:05:14;56.15;;;36.88;;
1759;SDS011;877;46.266;20.062;2022-12-08T05:07:41;53.90;;;36.33;;
1759;SDS011;877;46.266;20.062;2022-12-08T05:10:08;50.63;;;34.88;;
1759;SDS011;877;46.266;20.062;2022-12-08T05:12:34;55.28;;;33.88;;
1759;SDS011;877;46.266;20.062;2022-12-08T05:15:00;56.58;;;35.28;;
1759;SDS011;877;46.266;20.062;2022-12-08T05:17:27;55.50;;;35.97;;
1759;SDS011;877;46.266;20.062;2022-12-08T05:19:53;48.50;;;32.63;;
1759;SDS011;877;46.266;20.062;2022-12-08T05:22:20;52.85;;;33.15;;
1759;SDS011;877;46.266;20.062;2022-12-08T05:24:46;52.88;;;35.00;;
1759;SDS011;877;46.266;20.062;2022-12-08T05:27:14;51.33;;;33.30;;
1759;SDS011;877;46.266;20.062;2022-12-08T05:29:40;49.28;;;32.40;;
1759;SDS011;877;46.266;20.062;2022-12-08T05:32:07;48.78;;;32.90;;
1759;SDS011;877;46.266;20.062;2022-12-08T05:34:33;52.60;;;34.78;;
1759;SDS011;877;46.266;20.062;2022-12-08T05:37:02;49.55;;;32.40;;
1759;SDS011;877;46.266;20.062;2022-12-08T05:39:29;52.70;;;33.78;;
1759;SDS011;877;46.266;20.062;2022-12-08T05:41:56;50.13;;;32.53;;
1759;SDS011;877;46.266;20.062;2022-12-08T05:44:23;52.33;;;34.45;;
1759;SDS011;877;46.266;20.062;2022-12-08T05:46:50;54.38;;;33.20;;
1759;SDS011;877;46.266;20.062;2022-12-08T05:49:16;56.30;;;33.40;;
1759;SDS011;877;46.266;20.062;2022-12-08T05:51:42;53.30;;;33.47;;
1759;SDS011;877;46.266;20.062;2022-12-08T05:54:09;51.30;;;33.05;;
1759;SDS011;877;46.266;20.062;2022-12-08T05:56:36;52.88;;;33.58;;
1759;SDS011;877;46.266;20.062;2022-12-08T05:59:04;51.58;;;33.38;;
1759;SDS011;877;46.266;20.062;2022-12-08T06:01:30;53.65;;;34.47;;
1759;SDS011;877;46.266;20.062;2022-12-08T06:03:57;50.65;;;33.55;;
1759;SDS011;877;46.266;20.062;2022-12-08T06:06:24;54.13;;;35.55;;
1759;SDS011;877;46.266;20.062;2022-12-08T06:08:50;50.10;;;33.65;;
1759;SDS011;877;46.266;20.062;2022-12-08T06:11:18;50.83;;;32.85;;
1759;SDS011;877;46.266;20.062;2022-12-08T06:13:44;45.53;;;30.15;;
1759;SDS011;877;46.266;20.062;2022-12-08T06:16:11;50.58;;;31.70;;
1759;SDS011;877;46.266;20.062;2022-12-08T06:18:37;51.17;;;31.40;;
1759;SDS011;877;46.266;20.062;2022-12-08T06:21:09;49.97;;;31.73;;
1759;SDS011;877;46.266;20.062;2022-12-08T06:23:36;42.63;;;28.02;;
1759;SDS011;877;46.266;20.062;2022-12-08T06:26:03;45.47;;;29.80;;
1759;SDS011;877;46.266;20.062;2022-12-08T06:28:29;43.47;;;28.55;;
1759;SDS011;877;46.266;20.062;2022-12-08T06:30:56;44.58;;;29.25;;
1759;SDS011;877;46.266;20.062;2022-12-08T06:33:22;46.03;;;30.00;;
1759;SDS011;877;46.266;20.062;2022-12-08T06:35:49;43.63;;;29.00;;
1759;SDS011;877;46.266;20.062;2022-12-08T06:38:15;43.47;;;29.95;;
1759;SDS011;877;46.266;20.062;2022-12-08T06:40:41;43.83;;;28.65;;
1759;SDS011;877;46.266;20.062;2022-12-08T06:43:07;47.70;;;30.63;;
1759;SDS011;877;46.266;20.062;2022-12-08T06:45:35;45.55;;;30.13;;
1759;SDS011;877;46.266;20.062;2022-12-08T06:48:01;42.35;;;26.95;;
1759;SDS011;877;46.266;20.062;2022-12-08T06:50:27;46.53;;;29.40;;
1759;SDS011;877;46.266;20.062;2022-12-08T06:52:54;43.92;;;28.10;;
1759;SDS011;877;46.266;20.062;2022-12-08T06:55:20;46.50;;;28.65;;
1759;SDS011;877;46.266;20.062;2022-12-08T06:57:47;233.73;;;136.70;;
1759;SDS011;877;46.266;20.062;2022-12-08T07:00:16;49.20;;;30.95;;
1759;SDS011;877;46.266;20.062;2022-12-08T07:02:42;45.88;;;30.13;;
1759;SDS011;877;46.266;20.062;2022-12-08T07:05:08;45.90;;;27.17;;
1759;SDS011;877;46.266;20.062;2022-12-08T07:07:34;46.92;;;27.75;;
1759;SDS011;877;46.266;20.062;2022-12-08T07:10:00;48.83;;;30.05;;
1759;SDS011;877;46.266;20.062;2022-12-08T07:12:26;43.38;;;28.80;;
1759;SDS011;877;46.266;20.062;2022-12-08T07:14:52;49.67;;;29.45;;
1759;SDS011;877;46.266;20.062;2022-12-08T07:17:18;48.38;;;28.35;;
1759;SDS011;877;46.266;20.062;2022-12-08T07:19:48;49.15;;;29.63;;
1759;SDS011;877;46.266;20.062;2022-12-08T07:22:14;48.83;;;27.80;;
1759;SDS011;877;46.266;20.062;2022-12-08T07:24:40;48.88;;;29.88;;
1759;SDS011;877;46.266;20.062;2022-12-08T07:27:06;45.05;;;26.98;;
1759;SDS011;877;46.266;20.062;2022-12-08T07:29:32;57.63;;;33.35;;
1759;SDS011;877;46.266;20.062;2022-12-08T07:31:59;48.33;;;28.85;;
1759;SDS011;877;46.266;20.062;2022-12-08T07:34:25;51.08;;;34.60;;
1759;SDS011;877;46.266;20.062;2022-12-08T07:36:51;55.97;;;36.42;;
1759;SDS011;877;46.266;20.062;2022-12-08T07:39:17;52.03;;;33.92;;
1759;SDS011;877;46.266;20.062;2022-12-08T07:41:43;47.95;;;31.35;;
1759;SDS011;877;46.266;20.062;2022-12-08T07:44:09;46.53;;;30.30;;
1759;SDS011;877;46.266;20.062;2022-12-08T07:46:35;49.45;;;30.17;;
1759;SDS011;877;46.266;20.062;2022-12-08T07:49:02;49.03;;;30.90;;
1759;SDS011;877;46.266;20.062;2022-12-08T07:51:28;47.38;;;29.63;;
1759;SDS011;877;46.266;20.062;2022-12-08T07:53:55;51.00;;;30.63;;
1759;SDS011;877;46.266;20.062;2022-12-08T07:56:21;49.58;;;30.90;;
1759;SDS011;877;46.266;20.062;2022-12-08T07:58:47;47.13;;;29.65;;
1759;SDS011;877;46.266;20.062;2022-12-08T08:01:27;47.65;;;30.63;;
1759;SDS011;877;46.266;20.062;2022-12-08T08:03:57;50.20;;;30.98;;
1759;SDS011;877;46.266;20.062;2022-12-08T08:06:26;51.10;;;30.67;;
1759;SDS011;877;46.266;20.062;2022-12-08T08:08:52;42.45;;;27.60;;
1759;SDS011;877;46.266;20.062;2022-12-08T08:11:18;44.78;;;28.17;;
1759;SDS011;877;46.266;20.062;2022-12-08T08:13:45;50.88;;;29.65;;
1759;SDS011;877;46.266;20.062;2022-12-08T08:16:11;48.47;;;28.95;;
1759;SDS011;877;46.266;20.062;2022-12-08T08:18:37;51.53;;;30.60;;
1759;SDS011;877;46.266;20.062;2022-12-08T08:21:04;51.97;;;31.08;;
1759;SDS011;877;46.266;20.062;2022-12-08T08:23:32;45.90;;;29.73;;
1759;SDS011;877;46.266;20.062;2022-12-08T08:25:58;52.22;;;29.20;;
1759;SDS011;877;46.266;20.062;2022-12-08T08:28:26;46.20;;;28.40;;
1759;SDS011;877;46.266;20.062;2022-12-08T08:30:53;46.17;;;27.27;;
1759;SDS011;877;46.266;20.062;2022-12-08T08:33:20;48.35;;;29.20;;
1759;SDS011;877;46.266;20.062;2022-12-08T08:35:46;46.70;;;28.80;;
1759;SDS011;877;46.266;20.062;2022-12-08T08:38:13;47.60;;;27.55;;
1759;SDS011;877;46.266;20.062;2022-12-08T08:40:39;45.78;;;28.35;;
1759;SDS011;877;46.266;20.062;2022-12-08T08:43:11;46.47;;;26.90;;
1759;SDS011;877;46.266;20.062;2022-12-08T08:46:01;45.40;;;27.85;;
1759;SDS011;877;46.266;20.062;2022-12-08T08:48:29;46.80;;;25.70;;
1759;SDS011;877;46.266;20.062;2022-12-08T08:50:58;42.00;;;25.33;;
1759;SDS011;877;46.266;20.062;2022-12-08T08:53:31;45.42;;;28.13;;
1759;SDS011;877;46.266;20.062;2022-12-08T08:55:57;39.00;;;25.48;;
1759;SDS011;877;46.266;20.062;2022-12-08T08:58:23;46.17;;;28.05;;
1759;SDS011;877;46.266;20.062;2022-12-08T09:00:51;44.42;;;27.25;;
1759;SDS011;877;46.266;20.062;2022-12-08T09:03:19;45.25;;;25.98;;
1759;SDS011;877;46.266;20.062;2022-12-08T09:05:46;36.40;;;23.45;;
1759;SDS011;877;46.266;20.062;2022-12-08T09:08:12;43.72;;;23.70;;
1759;SDS011;877;46.266;20.062;2022-12-08T09:53:55;33.42;;;22.85;;
1759;SDS011;877;46.266;20.062;2022-12-08T09:59:26;47.17;;;31.15;;
1759;SDS011;877;46.266;20.062;2022-12-08T10:01:54;43.92;;;25.35;;
1759;SDS011;877;46.266;20.062;2022-12-08T10:04:24;38.33;;;24.42;;
1759;SDS011;877;46.266;20.062;2022-12-08T10:06:55;36.63;;;24.95;;
1759;SDS011;877;46.266;20.062;2022-12-08T10:17:44;40.40;;;25.50;;
1759;SDS011;877;46.266;20.062;2022-12-08T10:20:17;34.58;;;23.83;;
1759;SDS011;877;46.266;20.062;2022-12-08T10:22:45;41.97;;;25.67;;
1759;SDS011;877;46.266;20.062;2022-12-08T10:27:41;31.10;;;21.50;;
1759;SDS011;877;46.266;20.062;2022-12-08T10:30:12;30.27;;;20.20;;
1759;SDS011;877;46.266;20.062;2022-12-08T10:32:40;31.38;;;19.05;;
1759;SDS011;877;46.266;20.062;2022-12-08T10:35:12;29.58;;;18.73;;
1759;SDS011;877;46.266;20.062;2022-12-08T10:37:39;31.05;;;19.52;;
1759;SDS011;877;46.266;20.062;2022-12-08T10:42:36;26.27;;;16.98;;
1759;SDS011;877;46.266;20.062;2022-12-08T10:47:29;32.65;;;20.70;;
1759;SDS011;877;46.266;20.062;2022-12-08T10:52:40;29.98;;;17.08;;
1759;SDS011;877;46.266;20.062;2022-12-08T10:55:12;26.90;;;17.70;;
1759;SDS011;877;46.266;20.062;2022-12-08T10:57:38;25.25;;;15.88;;
1759;SDS011;877;46.266;20.062;2022-12-08T11:00:04;28.88;;;18.25;;
1759;SDS011;877;46.266;20.062;2022-12-08T11:02:34;29.58;;;21.83;;
1759;SDS011;877;46.266;20.062;2022-12-08T11:05:01;24.17;;;16.55;;
1759;SDS011;877;46.266;20.062;2022-12-08T11:07:30;24.52;;;15.05;;
1759;SDS011;877;46.266;20.062;2022-12-08T11:09:56;26.75;;;17.27;;
1759;SDS011;877;46.266;20.062;2022-12-08T11:12:25;28.80;;;19.15;;
1759;SDS011;877;46.266;20.062;2022-12-08T11:14:57;27.70;;;17.55;;
1759;SDS011;877;46.266;20.062;2022-12-08T11:17:35;28.10;;;18.23;;
1759;SDS011;877;46.266;20.062;2022-12-08T11:22:36;23.30;;;15.57;;
1759;SDS011;877;46.266;20.062;2022-12-08T11:25:18;22.75;;;15.63;;
1759;SDS011;877;46.266;20.062;2022-12-08T11:27:50;24.13;;;15.45;;
1759;SDS011;877;46.266;20.062;2022-12-08T11:30:18;27.77;;;18.08;;
1759;SDS011;877;46.266;20.062;2022-12-08T11:32:48;22.05;;;15.85;;
1759;SDS011;877;46.266;20.062;2022-12-08T11:35:23;23.88;;;15.00;;
1759;SDS011;877;46.266;20.062;2022-12-08T11:37:53;23.70;;;14.27;;
1759;SDS011;877;46.266;20.062;2022-12-08T11:40:31;20.50;;;13.50;;
1759;SDS011;877;46.266;20.062;2022-12-08T11:43:17;30.00;;;20.05;;
1759;SDS011;877;46.266;20.062;2022-12-08T11:45:47;19.58;;;14.35;;
1759;SDS011;877;46.266;20.062;2022-12-08T11:50:52;19.17;;;12.90;;
1759;SDS011;877;46.266;20.062;2022-12-08T11:55:57;22.58;;;14.55;;
1759;SDS011;877;46.266;20.062;2022-12-08T11:58:28;19.20;;;12.98;;
1759;SDS011;877;46.266;20.062;2022-12-08T12:00:56;16.90;;;12.57;;
1759;SDS011;877;46.266;20.062;2022-12-08T12:03:33;17.70;;;10.98;;
1759;SDS011;877;46.266;20.062;2022-12-08T12:06:04;15.40;;;10.80;;
1759;SDS011;877;46.266;20.062;2022-12-08T12:17:01;20.23;;;12.23;;
1759;SDS011;877;46.266;20.062;2022-12-08T12:19:35;21.70;;;13.40;;
1759;SDS011;877;46.266;20.062;2022-12-08T12:22:07;16.10;;;11.98;;
1759;SDS011;877;46.266;20.062;2022-12-08T12:24:38;19.52;;;12.85;;
1759;SDS011;877;46.266;20.062;2022-12-08T12:29:32;19.55;;;12.75;;
1759;SDS011;877;46.266;20.062;2022-12-08T12:32:06;20.23;;;12.30;;
1759;SDS011;877;46.266;20.062;2022-12-08T12:34:34;18.95;;;12.20;;
1759;SDS011;877;46.266;20.062;2022-12-08T12:37:11;15.70;;;11.00;;
1759;SDS011;877;46.266;20.062;2022-12-08T12:39:49;19.48;;;10.65;;
1759;SDS011;877;46.266;20.062;2022-12-08T12:45:18;17.40;;;12.23;;
1759;SDS011;877;46.266;20.062;2022-12-08T12:52:58;16.17;;;11.90;;
1759;SDS011;877;46.266;20.062;2022-12-08T12:55:26;17.45;;;11.75;;
1759;SDS011;877;46.266;20.062;2022-12-08T12:57:53;22.10;;;15.75;;
1759;SDS011;877;46.266;20.062;2022-12-08T13:00:21;27.65;;;21.08;;
1759;SDS011;877;46.266;20.062;2022-12-08T13:02:49;29.40;;;17.70;;
1759;SDS011;877;46.266;20.062;2022-12-08T13:07:59;16.02;;;11.45;;
1759;SDS011;877;46.266;20.062;2022-12-08T13:15:37;18.50;;;10.82;;
1759;SDS011;877;46.266;20.062;2022-12-08T13:18:05;16.23;;;11.85;;
1759;SDS011;877;46.266;20.062;2022-12-08T13:20:39;16.92;;;11.55;;
1759;SDS011;877;46.266;20.062;2022-12-08T13:23:23;18.88;;;10.90;;
1759;SDS011;877;46.266;20.062;2022-12-08T13:25:51;17.90;;;12.00;;
1759;SDS011;877;46.266;20.062;2022-12-08T13:28:19;16.73;;;11.35;;
1759;SDS011;877;46.266;20.062;2022-12-08T13:30:46;16.40;;;9.98;;
1759;SDS011;877;46.266;20.062;2022-12-08T13:33:15;12.23;;;8.70;;
1759;SDS011;877;46.266;20.062;2022-12-08T13:36:04;15.05;;;10.25;;
1759;SDS011;877;46.266;20.062;2022-12-08T13:38:34;14.05;;;9.75;;
1759;SDS011;877;46.266;20.062;2022-12-08T13:41:02;16.88;;;10.15;;
1759;SDS011;877;46.266;20.062;2022-12-08T13:43:49;13.77;;;9.32;;
1759;SDS011;877;46.266;20.062;2022-12-08T13:46:20;14.70;;;9.90;;
1759;SDS011;877;46.266;20.062;2022-12-08T13:48:49;16.35;;;10.25;;
1759;SDS011;877;46.266;20.062;2022-12-08T13:51:27;14.85;;;10.70;;
1759;SDS011;877;46.266;20.062;2022-12-08T13:53:59;14.88;;;9.95;;
1759;SDS011;877;46.266;20.062;2022-12-08T13:56:27;14.95;;;10.90;;
1759;SDS011;877;46.266;20.062;2022-12-08T13:59:07;16.40;;;11.27;;
1759;SDS011;877;46.266;20.062;2022-12-08T14:01:38;19.40;;;13.25;;
1759;SDS011;877;46.266;20.062;2022-12-08T14:04:25;16.13;;;11.75;;
1759;SDS011;877;46.266;20.062;2022-12-08T14:06:57;16.58;;;11.50;;
1759;SDS011;877;46.266;20.062;2022-12-08T14:09:26;18.45;;;10.52;;
1759;SDS011;877;46.266;20.062;2022-12-08T14:11:58;17.13;;;10.45;;
1759;SDS011;877;46.266;20.062;2022-12-08T14:17:05;16.92;;;10.73;;
1759;SDS011;877;46.266;20.062;2022-12-08T14:19:33;17.38;;;11.02;;
1759;SDS011;877;46.266;20.062;2022-12-08T14:22:00;18.70;;;11.25;;
1759;SDS011;877;46.266;20.062;2022-12-08T14:24:27;17.00;;;9.82;;
1759;SDS011;877;46.266;20.062;2022-12-08T14:26:59;16.55;;;11.63;;
1759;SDS011;877;46.266;20.062;2022-12-08T14:29:44;15.57;;;10.10;;
1759;SDS011;877;46.266;20.062;2022-12-08T14:35:10;19.98;;;12.70;;
1759;SDS011;877;46.266;20.062;2022-12-08T14:37:38;18.65;;;12.70;;
1759;SDS011;877;46.266;20.062;2022-12-08T14:42:40;24.92;;;15.20;;
1759;SDS011;877;46.266;20.062;2022-12-08T14:45:10;20.13;;;13.55;;
1759;SDS011;877;46.266;20.062;2022-12-08T14:47:37;20.65;;;14.32;;
1759;SDS011;877;46.266;20.062;2022-12-08T14:50:04;17.15;;;11.38;;
1759;SDS011;877;46.266;20.062;2022-12-08T14:52:50;20.45;;;12.02;;
1759;SDS011;877;46.266;20.062;2022-12-08T14:55:16;19.88;;;12.20;;
1759;SDS011;877;46.266;20.062;2022-12-08T14:57:42;15.68;;;11.27;;
1759;SDS011;877;46.266;20.062;2022-12-08T15:00:17;18.75;;;12.73;;
1759;SDS011;877;46.266;20.062;2022-12-08T15:02:44;15.00;;;10.90;;
1759;SDS011;877;46.266;20.062;2022-12-08T15:05:14;18.17;;;11.15;;
1759;SDS011;877;46.266;20.062;2022-12-08T15:07:44;20.52;;;11.30;;
1759;SDS011;877;46.266;20.062;2022-12-08T15:15:31;20.35;;;12.60;;
1759;SDS011;877;46.266;20.062;2022-12-08T15:18:05;21.38;;;13.55;;
1759;SDS011;877;46.266;20.062;2022-12-08T15:23:35;19.27;;;12.82;;
1759;SDS011;877;46.266;20.062;2022-12-08T15:26:07;19.20;;;12.38;;
1759;SDS011;877;46.266;20.062;2022-12-08T15:28:33;23.55;;;14.75;;
1759;SDS011;877;46.266;20.062;2022-12-08T15:30:59;22.55;;;15.07;;
1759;SDS011;877;46.266;20.062;2022-12-08T15:33:26;23.23;;;15.15;;
1759;SDS011;877;46.266;20.062;2022-12-08T15:35:55;22.00;;;13.73;;
1759;SDS011;877;46.266;20.062;2022-12-08T15:38:22;21.40;;;13.73;;
1759;SDS011;877;46.266;20.062;2022-12-08T15:40:50;24.50;;;15.90;;
1759;SDS011;877;46.266;20.062;2022-12-08T15:43:16;24.17;;;15.00;;
1759;SDS011;877;46.266;20.062;2022-12-08T15:45:42;24.80;;;17.42;;
1759;SDS011;877;46.266;20.062;2022-12-08T15:48:13;22.30;;;16.02;;
1759;SDS011;877;46.266;20.062;2022-12-08T15:50:42;23.40;;;15.80;;
1759;SDS011;877;46.266;20.062;2022-12-08T15:53:09;22.98;;;15.57;;
1759;SDS011;877;46.266;20.062;2022-12-08T15:55:35;22.73;;;15.75;;
1759;SDS011;877;46.266;20.062;2022-12-08T15:58:01;29.52;;;15.75;;
1759;SDS011;877;46.266;20.062;2022-12-08T16:00:28;24.10;;;16.35;;
1759;SDS011;877;46.266;20.062;2022-12-08T16:02:56;25.17;;;17.58;;
1759;SDS011;877;46.266;20.062;2022-12-08T16:05:23;24.75;;;15.77;;
1759;SDS011;877;46.266;20.062;2022-12-08T16:07:50;24.92;;;15.23;;
1759;SDS011;877;46.266;20.062;2022-12-08T16:10:18;22.60;;;15.70;;
1759;SDS011;877;46.266;20.062;2022-12-08T16:12:45;23.77;;;16.13;;
1759;SDS011;877;46.266;20.062;2022-12-08T16:15:30;43.00;;;25.55;;
1759;SDS011;877;46.266;20.062;2022-12-08T16:17:57;29.75;;;22.23;;
1759;SDS011;877;46.266;20.062;2022-12-08T16:20:24;29.10;;;18.98;;
1759;SDS011;877;46.266;20.062;2022-12-08T16:22:50;29.08;;;18.73;;
1759;SDS011;877;46.266;20.062;2022-12-08T16:25:18;27.10;;;18.98;;
1759;SDS011;877;46.266;20.062;2022-12-08T16:27:47;32.60;;;19.70;;
1759;SDS011;877;46.266;20.062;2022-12-08T16:30:14;29.83;;;19.60;;
1759;SDS011;877;46.266;20.062;2022-12-08T16:32:41;30.80;;;20.42;;
1759;SDS011;877;46.266;20.062;2022-12-08T16:35:07;31.10;;;20.90;;
1759;SDS011;877;46.266;20.062;2022-12-08T16:37:33;27.33;;;19.58;;
1759;SDS011;877;46.266;20.062;2022-12-08T16:40:00;33.75;;;22.38;;
1759;SDS011;877;46.266;20.062;2022-12-08T16:42:29;31.15;;;20.45;;
1759;SDS011;877;46.266;20.062;2022-12-08T16:45:13;29.23;;;19.75;;
1759;SDS011;877;46.266;20.062;2022-12-08T16:47:40;34.25;;;22.20;;
1759;SDS011;877;46.266;20.062;2022-12-08T16:50:26;29.67;;;20.90;;
1759;SDS011;877;46.266;20.062;2022-12-08T16:52:57;29.92;;;20.88;;
1759;SDS011;877;46.266;20.062;2022-12-08T16:55:24;34.30;;;22.98;;
1759;SDS011;877;46.266;20.062;2022-12-08T16:57:50;38.05;;;23.67;;
1759;SDS011;877;46.266;20.062;2022-12-08T17:00:19;45.17;;;31.27;;
1759;SDS011;877;46.266;20.062;2022-12-08T17:02:46;39.50;;;27.20;;
1759;SDS011;877;46.266;20.062;2022-12-08T17:05:16;37.58;;;24.40;;
1759;SDS011;877;46.266;20.062;2022-12-08T17:07:45;36.30;;;23.42;;
1759;SDS011;877;46.266;20.062;2022-12-08T17:10:13;37.63;;;25.00;;
1759;SDS011;877;46.266;20.062;2022-12-08T17:12:42;40.22;;;27.33;;
1759;SDS011;877;46.266;20.062;2022-12-08T17:17:43;45.95;;;32.05;;
1759;SDS011;877;46.266;20.062;2022-12-08T17:20:18;43.13;;;28.83;;
1759;SDS011;877;46.266;20.062;2022-12-08T17:22:44;41.33;;;27.65;;